BAW221 EGLL-EGPH
Flight info
| Callsign | BAW221 |
|---|---|
| Flight time | 0h 55m |
| Altitude | 30000 |
| Route | UMLA1G UMLAT T418 WELIN T420 TNT UN57 POL UN601 RIBEL DCT INPIP INPI1E |
| Aircraft | A319/M-SDE3FGHIRWY/LB1 |
Departure
| Time | 2026-05-03 21:23 |
|---|---|
| Airport | London Heathrow Airport (EGLL) |
Arrival
| Time | 2026-05-03 22:19 |
|---|---|
| Airport | Edinburgh Airport (EGPH) |
| Time | Latitude | Longitude | Altitude | Speed | Heading |
|---|---|---|---|---|---|
| 2026-05-03 21:03 | 51.47396 | -0.48757 | 78 ft | 0 kts | 180° |
| 2026-05-03 21:14 | 51.47420 | -0.48760 | 78 ft | 3 kts | 183° |
| 2026-05-03 21:14 | 51.47446 | -0.48768 | 78 ft | 3 kts | 149° |
| 2026-05-03 21:15 | 51.47456 | -0.48797 | 78 ft | 0 kts | 100° |
| 2026-05-03 21:17 | 51.47456 | -0.48795 | 78 ft | 1 kts | 100° |
| 2026-05-03 21:17 | 51.47482 | -0.48525 | 78 ft | 18 kts | 107° |
| 2026-05-03 21:17 | 51.47359 | -0.48476 | 78 ft | 25 kts | 181° |
| 2026-05-03 21:18 | 51.47158 | -0.48473 | 78 ft | 29 kts | 181° |
| 2026-05-03 21:18 | 51.46957 | -0.48473 | 78 ft | 27 kts | 181° |
| 2026-05-03 21:18 | 51.46791 | -0.48472 | 78 ft | 22 kts | 177° |
| 2026-05-03 21:18 | 51.46660 | -0.48406 | 78 ft | 20 kts | 108° |
| 2026-05-03 21:19 | 51.46649 | -0.48096 | 78 ft | 35 kts | 88° |
| 2026-05-03 21:19 | 51.46652 | -0.47708 | 78 ft | 33 kts | 91° |
| 2026-05-03 21:19 | 51.46655 | -0.47347 | 78 ft | 31 kts | 89° |
| 2026-05-03 21:19 | 51.46655 | -0.47009 | 78 ft | 29 kts | 90° |
| 2026-05-03 21:20 | 51.46657 | -0.46690 | 78 ft | 27 kts | 90° |
| 2026-05-03 21:20 | 51.46657 | -0.46386 | 78 ft | 26 kts | 87° |
| 2026-05-03 21:20 | 51.46659 | -0.46048 | 78 ft | 38 kts | 90° |
| 2026-05-03 21:20 | 51.46659 | -0.45568 | 78 ft | 41 kts | 91° |
| 2026-05-03 21:21 | 51.46662 | -0.45131 | 78 ft | 35 kts | 91° |
| 2026-05-03 21:21 | 51.46662 | -0.44740 | 78 ft | 33 kts | 93° |
| 2026-05-03 21:21 | 51.46666 | -0.44382 | 78 ft | 30 kts | 89° |
| 2026-05-03 21:21 | 51.46666 | -0.44044 | 78 ft | 29 kts | 90° |
| 2026-05-03 21:22 | 51.46665 | -0.43726 | 78 ft | 25 kts | 92° |
| 2026-05-03 21:22 | 51.46569 | -0.43601 | 78 ft | 20 kts | 180° |
| 2026-05-03 21:22 | 51.46494 | -0.43709 | 78 ft | 0 kts | 269° |
| 2026-05-03 21:22 | 51.46494 | -0.43722 | 78 ft | 2 kts | 269° |
| 2026-05-03 21:23 | 51.46491 | -0.43966 | 78 ft | 57 kts | 269° |
| 2026-05-03 21:23 | 51.46488 | -0.45014 | 78 ft | 126 kts | 270° |
| 2026-05-03 21:23 | 51.46474 | -0.46652 | 343 ft | 155 kts | 272° |
| 2026-05-03 21:23 | 51.46482 | -0.48361 | 1040 ft | 151 kts | 270° |
| 2026-05-03 21:24 | 51.46461 | -0.50018 | 1759 ft | 149 kts | 269° |
| 2026-05-03 21:24 | 51.46600 | -0.51728 | 2287 ft | 162 kts | 292° |
| 2026-05-03 21:24 | 51.47142 | -0.53414 | 2785 ft | 178 kts | 300° |
| 2026-05-03 21:24 | 51.47800 | -0.55225 | 3306 ft | 195 kts | 300° |
| 2026-05-03 21:25 | 51.48507 | -0.57244 | 3855 ft | 213 kts | 298° |
| 2026-05-03 21:25 | 51.49228 | -0.59440 | 4308 ft | 236 kts | 298° |
| 2026-05-03 21:25 | 51.50021 | -0.61835 | 4904 ft | 255 kts | 298° |
| 2026-05-03 21:25 | 51.50862 | -0.64421 | 5532 ft | 269 kts | 297° |
| 2026-05-03 21:26 | 51.51868 | -0.66994 | 6154 ft | 274 kts | 314° |
| 2026-05-03 21:26 | 51.53539 | -0.68478 | 6831 ft | 279 kts | 348° |
| 2026-05-03 21:26 | 51.55453 | -0.68589 | 7473 ft | 283 kts | 359° |
| 2026-05-03 21:26 | 51.57450 | -0.68588 | 8128 ft | 286 kts | 359° |
| 2026-05-03 21:27 | 51.59452 | -0.68641 | 8755 ft | 290 kts | 355° |
| 2026-05-03 21:27 | 51.61467 | -0.68795 | 9410 ft | 293 kts | 354° |
| 2026-05-03 21:27 | 51.63493 | -0.69018 | 10025 ft | 297 kts | 354° |
| 2026-05-03 21:27 | 51.65578 | -0.69259 | 10668 ft | 307 kts | 354° |
| 2026-05-03 21:28 | 51.67743 | -0.69507 | 11314 ft | 317 kts | 354° |
| 2026-05-03 21:28 | 51.69955 | -0.69760 | 11943 ft | 326 kts | 354° |
| 2026-05-03 21:28 | 51.72251 | -0.70019 | 12567 ft | 335 kts | 354° |
| 2026-05-03 21:28 | 51.74560 | -0.70279 | 13191 ft | 342 kts | 354° |
| 2026-05-03 21:29 | 51.76978 | -0.70550 | 13840 ft | 349 kts | 354° |
| 2026-05-03 21:29 | 51.79430 | -0.70824 | 14467 ft | 356 kts | 354° |
| 2026-05-03 21:29 | 51.81908 | -0.71101 | 15092 ft | 362 kts | 354° |
| 2026-05-03 21:29 | 51.84432 | -0.71384 | 15724 ft | 367 kts | 354° |
| 2026-05-03 21:30 | 51.86994 | -0.71673 | 16160 ft | 378 kts | 354° |
| 2026-05-03 21:30 | 51.89682 | -0.71976 | 16439 ft | 393 kts | 354° |
| 2026-05-03 21:30 | 51.92466 | -0.72290 | 16700 ft | 408 kts | 354° |
| 2026-05-03 21:30 | 51.95317 | -0.72610 | 17107 ft | 416 kts | 354° |
| 2026-05-03 21:31 | 51.98204 | -0.72936 | 17689 ft | 420 kts | 354° |
| 2026-05-03 21:31 | 52.01104 | -0.73502 | 18250 ft | 422 kts | 349° |
| 2026-05-03 21:31 | 52.03973 | -0.74472 | 18797 ft | 424 kts | 343° |
| 2026-05-03 21:31 | 52.06807 | -0.75810 | 19315 ft | 428 kts | 340° |
| 2026-05-03 21:32 | 52.09645 | -0.77289 | 19845 ft | 431 kts | 339° |
| 2026-05-03 21:32 | 52.12525 | -0.78819 | 20365 ft | 435 kts | 339° |
| 2026-05-03 21:32 | 52.15432 | -0.80360 | 20861 ft | 439 kts | 339° |
| 2026-05-03 21:32 | 52.18328 | -0.81886 | 21352 ft | 442 kts | 340° |
| 2026-05-03 21:33 | 52.21250 | -0.83438 | 21826 ft | 446 kts | 338° |
| 2026-05-03 21:33 | 52.24152 | -0.85287 | 22296 ft | 448 kts | 334° |
| 2026-05-03 21:33 | 52.26946 | -0.87500 | 22748 ft | 449 kts | 329° |
| 2026-05-03 21:33 | 52.29646 | -0.90040 | 23187 ft | 452 kts | 326° |
| 2026-05-03 21:34 | 52.32304 | -0.92687 | 23609 ft | 455 kts | 326° |
| 2026-05-03 21:34 | 52.35020 | -0.95426 | 24026 ft | 458 kts | 326° |
| 2026-05-03 21:34 | 52.37723 | -0.98152 | 24420 ft | 462 kts | 326° |
| 2026-05-03 21:34 | 52.40480 | -1.00923 | 24843 ft | 464 kts | 326° |
| 2026-05-03 21:35 | 52.43239 | -1.03689 | 25270 ft | 466 kts | 326° |
| 2026-05-03 21:35 | 52.45967 | -1.06422 | 25774 ft | 465 kts | 326° |
| 2026-05-03 21:35 | 52.48709 | -1.09172 | 26351 ft | 463 kts | 326° |
| 2026-05-03 21:35 | 52.51465 | -1.11939 | 26911 ft | 461 kts | 326° |
| 2026-05-03 21:36 | 52.54156 | -1.14646 | 27425 ft | 460 kts | 326° |
| 2026-05-03 21:36 | 52.56854 | -1.17362 | 27949 ft | 458 kts | 326° |
| 2026-05-03 21:36 | 52.59591 | -1.20122 | 28439 ft | 458 kts | 326° |
| 2026-05-03 21:36 | 52.62286 | -1.22846 | 28845 ft | 459 kts | 326° |
| 2026-05-03 21:37 | 52.64973 | -1.25564 | 29215 ft | 461 kts | 326° |
| 2026-05-03 21:37 | 52.67770 | -1.28399 | 29578 ft | 463 kts | 326° |
| 2026-05-03 21:37 | 52.70510 | -1.31182 | 29890 ft | 465 kts | 327° |
| 2026-05-03 21:37 | 52.73235 | -1.33952 | 29926 ft | 466 kts | 326° |
| 2026-05-03 21:38 | 52.78735 | -1.39559 | 29932 ft | 465 kts | 327° |
| 2026-05-03 21:38 | 52.84216 | -1.45166 | 29934 ft | 464 kts | 327° |
| 2026-05-03 21:39 | 52.89693 | -1.50784 | 29935 ft | 464 kts | 327° |
| 2026-05-03 21:39 | 52.95157 | -1.56410 | 29936 ft | 463 kts | 327° |
| 2026-05-03 21:40 | 53.00586 | -1.62013 | 29936 ft | 462 kts | 327° |
| 2026-05-03 21:40 | 53.06235 | -1.67145 | 29939 ft | 463 kts | 333° |
| 2026-05-03 21:41 | 53.12159 | -1.71248 | 29938 ft | 463 kts | 338° |
| 2026-05-03 21:41 | 53.18165 | -1.74958 | 29941 ft | 463 kts | 338° |
| 2026-05-03 21:42 | 53.24157 | -1.78658 | 29939 ft | 462 kts | 338° |
| 2026-05-03 21:42 | 53.30188 | -1.82410 | 29938 ft | 462 kts | 338° |
| 2026-05-03 21:43 | 53.36185 | -1.86160 | 29939 ft | 461 kts | 338° |
| 2026-05-03 21:43 | 53.42155 | -1.89906 | 29937 ft | 460 kts | 338° |
| 2026-05-03 21:44 | 53.48131 | -1.93668 | 29940 ft | 459 kts | 338° |
| 2026-05-03 21:44 | 53.54091 | -1.97433 | 29936 ft | 459 kts | 338° |
| 2026-05-03 21:45 | 53.60048 | -2.01209 | 29948 ft | 459 kts | 338° |
| 2026-05-03 21:45 | 53.65984 | -2.04979 | 29957 ft | 458 kts | 338° |
| 2026-05-03 21:46 | 53.71935 | -2.08770 | 29964 ft | 458 kts | 338° |
| 2026-05-03 21:46 | 53.77857 | -2.12649 | 29965 ft | 456 kts | 337° |
| 2026-05-03 21:47 | 53.83685 | -2.16659 | 29959 ft | 455 kts | 337° |
| 2026-05-03 21:47 | 53.89566 | -2.20695 | 29958 ft | 456 kts | 337° |
| 2026-05-03 21:48 | 53.95421 | -2.24709 | 29960 ft | 456 kts | 337° |
| 2026-05-03 21:48 | 54.01291 | -2.28747 | 29964 ft | 455 kts | 337° |
| 2026-05-03 21:49 | 54.07091 | -2.32747 | 29958 ft | 454 kts | 337° |
| 2026-05-03 21:49 | 54.12943 | -2.36796 | 29952 ft | 453 kts | 337° |
| 2026-05-03 21:50 | 54.18748 | -2.40827 | 29951 ft | 451 kts | 338° |
| 2026-05-03 21:50 | 54.24532 | -2.44848 | 29955 ft | 450 kts | 337° |
| 2026-05-03 21:51 | 54.30294 | -2.48880 | 29958 ft | 449 kts | 338° |
| 2026-05-03 21:51 | 54.36038 | -2.52896 | 29960 ft | 449 kts | 338° |
| 2026-05-03 21:52 | 54.38922 | -2.54918 | 29829 ft | 449 kts | 338° |
| 2026-05-03 21:52 | 54.41798 | -2.56940 | 29560 ft | 446 kts | 338° |
| 2026-05-03 21:52 | 54.44649 | -2.58947 | 29293 ft | 444 kts | 338° |
| 2026-05-03 21:52 | 54.47491 | -2.60953 | 29025 ft | 441 kts | 338° |
| 2026-05-03 21:53 | 54.50337 | -2.62961 | 28756 ft | 439 kts | 338° |
| 2026-05-03 21:53 | 54.53124 | -2.64932 | 28492 ft | 438 kts | 338° |
| 2026-05-03 21:53 | 54.55964 | -2.66945 | 28087 ft | 440 kts | 338° |
| 2026-05-03 21:53 | 54.58724 | -2.68904 | 27651 ft | 433 kts | 338° |
| 2026-05-03 21:54 | 54.61480 | -2.70862 | 27404 ft | 421 kts | 338° |
| 2026-05-03 21:54 | 54.64134 | -2.72750 | 27256 ft | 406 kts | 338° |
| 2026-05-03 21:54 | 54.66693 | -2.74573 | 27133 ft | 392 kts | 338° |
| 2026-05-03 21:54 | 54.69189 | -2.76352 | 27006 ft | 379 kts | 338° |
| 2026-05-03 21:55 | 54.71569 | -2.78051 | 26812 ft | 368 kts | 338° |
| 2026-05-03 21:55 | 54.73892 | -2.79711 | 26701 ft | 355 kts | 338° |
| 2026-05-03 21:55 | 54.76122 | -2.81306 | 26576 ft | 344 kts | 338° |
| 2026-05-03 21:55 | 54.78288 | -2.82858 | 26461 ft | 332 kts | 338° |
| 2026-05-03 21:56 | 54.80381 | -2.84361 | 26354 ft | 321 kts | 339° |
| 2026-05-03 21:56 | 54.82407 | -2.85816 | 26256 ft | 313 kts | 339° |
| 2026-05-03 21:56 | 54.84396 | -2.87243 | 26154 ft | 309 kts | 338° |
| 2026-05-03 21:56 | 54.86379 | -2.88668 | 26057 ft | 316 kts | 338° |
| 2026-05-03 21:57 | 54.88487 | -2.90185 | 25890 ft | 339 kts | 338° |
| 2026-05-03 21:57 | 54.90692 | -2.91773 | 25319 ft | 348 kts | 338° |
| 2026-05-03 21:57 | 54.92917 | -2.93382 | 24796 ft | 349 kts | 338° |
| 2026-05-03 21:57 | 54.95148 | -2.94999 | 24291 ft | 349 kts | 338° |
| 2026-05-03 21:58 | 54.97386 | -2.96622 | 23847 ft | 346 kts | 338° |
| 2026-05-03 21:58 | 54.99580 | -2.98216 | 23441 ft | 343 kts | 338° |
| 2026-05-03 21:58 | 55.01772 | -2.99809 | 23017 ft | 341 kts | 338° |
| 2026-05-03 21:58 | 55.03970 | -3.01409 | 22603 ft | 338 kts | 338° |
| 2026-05-03 21:59 | 55.06107 | -3.02966 | 22203 ft | 336 kts | 338° |
| 2026-05-03 21:59 | 55.08262 | -3.04539 | 21799 ft | 334 kts | 338° |
| 2026-05-03 21:59 | 55.10389 | -3.06091 | 21398 ft | 332 kts | 338° |
| 2026-05-03 21:59 | 55.12497 | -3.07632 | 21007 ft | 329 kts | 338° |
| 2026-05-03 22:00 | 55.14587 | -3.09162 | 20632 ft | 327 kts | 338° |
| 2026-05-03 22:00 | 55.16677 | -3.10690 | 20243 ft | 325 kts | 338° |
| 2026-05-03 22:00 | 55.18757 | -3.12214 | 19852 ft | 323 kts | 338° |
| 2026-05-03 22:00 | 55.20797 | -3.13712 | 19463 ft | 322 kts | 338° |
| 2026-05-03 22:01 | 55.22850 | -3.15221 | 19082 ft | 320 kts | 338° |
| 2026-05-03 22:01 | 55.24910 | -3.16736 | 18704 ft | 318 kts | 338° |
| 2026-05-03 22:01 | 55.26934 | -3.18227 | 18339 ft | 316 kts | 338° |
| 2026-05-03 22:01 | 55.28966 | -3.19636 | 17971 ft | 314 kts | 344° |
| 2026-05-03 22:02 | 55.31089 | -3.20198 | 17600 ft | 312 kts | 359° |
| 2026-05-03 22:02 | 55.33256 | -3.19973 | 17245 ft | 310 kts | 4° |
| 2026-05-03 22:02 | 55.35380 | -3.19626 | 16883 ft | 309 kts | 5° |
| 2026-05-03 22:02 | 55.37501 | -3.19272 | 16517 ft | 307 kts | 5° |
| 2026-05-03 22:03 | 55.39613 | -3.18926 | 16152 ft | 305 kts | 4° |
| 2026-05-03 22:03 | 55.41734 | -3.18584 | 15779 ft | 304 kts | 4° |
| 2026-05-03 22:03 | 55.43827 | -3.18250 | 15432 ft | 302 kts | 4° |
| 2026-05-03 22:03 | 55.45902 | -3.17923 | 15093 ft | 300 kts | 4° |
| 2026-05-03 22:04 | 55.47973 | -3.17596 | 14750 ft | 297 kts | 4° |
| 2026-05-03 22:04 | 55.50004 | -3.17275 | 14396 ft | 296 kts | 4° |
| 2026-05-03 22:04 | 55.52052 | -3.16952 | 14047 ft | 294 kts | 4° |
| 2026-05-03 22:04 | 55.54075 | -3.16636 | 13703 ft | 293 kts | 4° |
| 2026-05-03 22:05 | 55.56078 | -3.16322 | 13355 ft | 291 kts | 4° |
| 2026-05-03 22:05 | 55.58110 | -3.16002 | 13002 ft | 290 kts | 4° |
| 2026-05-03 22:05 | 55.60098 | -3.15718 | 12683 ft | 288 kts | 0° |
| 2026-05-03 22:05 | 55.62033 | -3.16414 | 12354 ft | 285 kts | 331° |
| 2026-05-03 22:06 | 55.63496 | -3.18735 | 11983 ft | 286 kts | 305° |
| 2026-05-03 22:06 | 55.64355 | -3.21834 | 11647 ft | 282 kts | 293° |
| 2026-05-03 22:06 | 55.65052 | -3.25023 | 11240 ft | 277 kts | 293° |
| 2026-05-03 22:06 | 55.65743 | -3.28160 | 10824 ft | 272 kts | 293° |
| 2026-05-03 22:07 | 55.66437 | -3.31237 | 10316 ft | 268 kts | 294° |
| 2026-05-03 22:07 | 55.67130 | -3.34261 | 9734 ft | 264 kts | 294° |
| 2026-05-03 22:07 | 55.67819 | -3.37238 | 9149 ft | 260 kts | 294° |
| 2026-05-03 22:07 | 55.68497 | -3.40135 | 8571 ft | 257 kts | 294° |
| 2026-05-03 22:08 | 55.69176 | -3.43035 | 7985 ft | 254 kts | 294° |
| 2026-05-03 22:08 | 55.69849 | -3.45911 | 7396 ft | 251 kts | 294° |
| 2026-05-03 22:08 | 55.70506 | -3.48730 | 6859 ft | 246 kts | 295° |
| 2026-05-03 22:08 | 55.71153 | -3.51502 | 6344 ft | 242 kts | 294° |
| 2026-05-03 22:09 | 55.71783 | -3.54208 | 5831 ft | 239 kts | 294° |
| 2026-05-03 22:09 | 55.72413 | -3.56918 | 5320 ft | 237 kts | 295° |
| 2026-05-03 22:09 | 55.73032 | -3.59592 | 4850 ft | 232 kts | 294° |
| 2026-05-03 22:10 | 55.74219 | -3.64747 | 4097 ft | 220 kts | 295° |
| 2026-05-03 22:10 | 55.74802 | -3.67234 | 3996 ft | 217 kts | 294° |
| 2026-05-03 22:10 | 55.75372 | -3.69674 | 3977 ft | 209 kts | 294° |
| 2026-05-03 22:10 | 55.75898 | -3.71944 | 4041 ft | 192 kts | 294° |
| 2026-05-03 22:11 | 55.76544 | -3.73963 | 4015 ft | 185 kts | 313° |
| 2026-05-03 22:11 | 55.77570 | -3.75279 | 3999 ft | 183 kts | 337° |
| 2026-05-03 22:11 | 55.78783 | -3.75848 | 4000 ft | 183 kts | 349° |
| 2026-05-03 22:11 | 55.80046 | -3.76205 | 3993 ft | 183 kts | 355° |
| 2026-05-03 22:12 | 55.81268 | -3.75778 | 3974 ft | 179 kts | 28° |
| 2026-05-03 22:12 | 55.82196 | -3.74325 | 3989 ft | 178 kts | 49° |
| 2026-05-03 22:12 | 55.82927 | -3.72570 | 3993 ft | 177 kts | 53° |
| 2026-05-03 22:12 | 55.83622 | -3.70761 | 3992 ft | 176 kts | 55° |
| 2026-05-03 22:13 | 55.84274 | -3.68964 | 3982 ft | 167 kts | 57° |
| 2026-05-03 22:13 | 55.84875 | -3.67240 | 3799 ft | 162 kts | 57° |
| 2026-05-03 22:13 | 55.85432 | -3.65603 | 3597 ft | 146 kts | 57° |
| 2026-05-03 22:13 | 55.85930 | -3.64138 | 3377 ft | 135 kts | 57° |
| 2026-05-03 22:14 | 55.86411 | -3.62720 | 3192 ft | 133 kts | 57° |
| 2026-05-03 22:14 | 55.86886 | -3.61312 | 3018 ft | 132 kts | 57° |
| 2026-05-03 22:14 | 55.87357 | -3.59911 | 2841 ft | 132 kts | 57° |
| 2026-05-03 22:14 | 55.87826 | -3.58513 | 2669 ft | 131 kts | 57° |
| 2026-05-03 22:15 | 55.88295 | -3.57116 | 2497 ft | 131 kts | 57° |
| 2026-05-03 22:15 | 55.88757 | -3.55738 | 2325 ft | 131 kts | 58° |
| 2026-05-03 22:15 | 55.89228 | -3.54338 | 2147 ft | 131 kts | 58° |
| 2026-05-03 22:15 | 55.89699 | -3.52943 | 1969 ft | 131 kts | 59° |
| 2026-05-03 22:16 | 55.90165 | -3.51562 | 1789 ft | 130 kts | 59° |
| 2026-05-03 22:16 | 55.90631 | -3.50181 | 1610 ft | 129 kts | 59° |
| 2026-05-03 22:16 | 55.91093 | -3.48809 | 1433 ft | 129 kts | 59° |
| 2026-05-03 22:16 | 55.91558 | -3.47447 | 1256 ft | 129 kts | 60° |
| 2026-05-03 22:17 | 55.92012 | -3.46083 | 1082 ft | 128 kts | 59° |
| 2026-05-03 22:17 | 55.92474 | -3.44714 | 908 ft | 128 kts | 59° |
| 2026-05-03 22:17 | 55.92933 | -3.43355 | 734 ft | 128 kts | 58° |
| 2026-05-03 22:17 | 55.93391 | -3.42002 | 563 ft | 128 kts | 58° |
| 2026-05-03 22:18 | 55.93848 | -3.40650 | 392 ft | 128 kts | 58° |
| 2026-05-03 22:18 | 55.94311 | -3.39281 | 217 ft | 127 kts | 58° |
| 2026-05-03 22:18 | 55.94761 | -3.37954 | 103 ft | 118 kts | 58° |
| 2026-05-03 22:18 | 55.95110 | -3.36916 | 99 ft | 62 kts | 60° |
| 2026-05-03 22:19 | 55.95243 | -3.36526 | 102 ft | 25 kts | 57° |
| 2026-05-03 22:19 | 55.95200 | -3.36355 | 102 ft | 11 kts | 149° |
| 2026-05-03 22:19 | 55.95123 | -3.36324 | 102 ft | 12 kts | 218° |
| 2026-05-03 22:19 | 55.95059 | -3.36393 | 102 ft | 12 kts | 179° |
| 2026-05-03 22:20 | 55.94987 | -3.36467 | 102 ft | 10 kts | 223° |
| 2026-05-03 22:20 | 55.94926 | -3.36441 | 102 ft | 7 kts | 143° |
| 2026-05-03 22:20 | 55.94919 | -3.36433 | 102 ft | 0 kts | 143° |